createdAt,value
2019-03-27T00:01:16.388Z,36.03
2019-03-27T00:03:47.694Z,31.17
2019-03-27T00:06:19.042Z,43.68
2019-03-27T00:08:50.107Z,36.03
2019-03-27T00:11:21.267Z,34.43
2019-03-27T00:13:52.563Z,35.43
2019-03-27T00:16:23.656Z,36.13
2019-03-27T00:18:54.781Z,35.05
2019-03-27T00:21:27.792Z,34.55
2019-03-27T00:23:58.933Z,37.23
2019-03-27T00:26:30.533Z,37.40
2019-03-27T00:29:01.699Z,35.78
2019-03-27T00:31:32.902Z,43.45
2019-03-27T00:34:04.095Z,40.55
2019-03-27T00:36:37.805Z,36.58
2019-03-27T00:39:09.036Z,35.58
2019-03-27T00:41:40.194Z,32.10
2019-03-27T00:44:11.232Z,35.10
2019-03-27T00:46:43.798Z,29.60
2019-03-27T00:49:15.822Z,30.25
2019-03-27T00:51:46.927Z,30.17
2019-03-27T00:54:18.143Z,48.58
2019-03-27T00:56:49.532Z,36.50
2019-03-27T00:59:22.340Z,32.05
2019-03-27T01:01:53.439Z,27.15
2019-03-27T01:04:33.347Z,31.10
2019-03-27T01:09:36.835Z,35.73
2019-03-27T01:12:08.072Z,32.48
2019-03-27T01:14:39.266Z,35.83
2019-03-27T01:17:10.529Z,38.05
2019-03-27T01:19:41.757Z,41.35
2019-03-27T01:22:12.932Z,44.80
2019-03-27T01:24:44.461Z,49.38
2019-03-27T01:27:15.703Z,44.48
2019-03-27T01:29:46.881Z,47.53
2019-03-27T01:32:18.231Z,42.35
2019-03-27T01:34:49.458Z,46.48
2019-03-27T01:37:20.827Z,45.38
2019-03-27T01:39:52.315Z,42.75
2019-03-27T01:42:23.524Z,48.10
2019-03-27T01:44:54.583Z,50.43
2019-03-27T01:47:25.707Z,57.30
2019-03-27T01:49:56.942Z,64.87
2019-03-27T01:52:28.101Z,59.80
2019-03-27T01:54:59.254Z,59.85
2019-03-27T01:57:30.450Z,54.93
2019-03-27T02:00:01.521Z,61.18
2019-03-27T02:02:34.424Z,57.48
2019-03-27T02:05:10.494Z,61.98
2019-03-27T02:07:41.606Z,60.75
2019-03-27T02:10:13.792Z,57.88
2019-03-27T02:12:45.038Z,54.95
2019-03-27T02:15:16.199Z,55.00
2019-03-27T02:17:47.290Z,56.25
2019-03-27T02:20:18.488Z,56.33
2019-03-27T02:22:49.739Z,48.48
2019-03-27T02:25:22.065Z,49.70
2019-03-27T02:27:53.313Z,47.80
2019-03-27T02:30:24.567Z,52.03
2019-03-27T02:32:55.632Z,47.85
2019-03-27T02:35:26.693Z,51.58
2019-03-27T02:37:57.703Z,46.13
2019-03-27T02:40:28.855Z,50.15
2019-03-27T02:43:00.089Z,49.60
2019-03-27T02:45:31.363Z,46.20
2019-03-27T02:48:02.568Z,47.55
2019-03-27T02:50:33.741Z,44.38
2019-03-27T02:53:04.934Z,49.13
2019-03-27T02:55:36.146Z,48.95
2019-03-27T02:58:07.577Z,50.08
2019-03-27T03:00:38.823Z,48.78
2019-03-27T03:03:10.008Z,53.70
2019-03-27T03:05:41.078Z,52.13
2019-03-27T03:08:12.159Z,53.92
2019-03-27T03:10:45.950Z,52.67
2019-03-27T03:13:16.374Z,56.33
2019-03-27T03:15:47.456Z,58.48
2019-03-27T03:18:18.589Z,49.60
2019-03-27T03:20:49.650Z,54.45
2019-03-27T03:23:20.656Z,57.03
2019-03-27T03:25:51.948Z,65.92
2019-03-27T03:28:23.071Z,64.53
2019-03-27T03:30:55.182Z,67.50
2019-03-27T03:33:26.418Z,70.42
2019-03-27T03:35:57.594Z,77.90
2019-03-27T03:38:28.659Z,78.50
2019-03-27T03:40:59.790Z,88.45
2019-03-27T03:43:30.950Z,94.55
2019-03-27T03:46:02.121Z,91.60
2019-03-27T03:48:35.656Z,101.18
2019-03-27T03:51:06.818Z,98.42
2019-03-27T03:53:38.126Z,99.42
2019-03-27T03:56:11.237Z,104.25
2019-03-27T03:58:42.418Z,96.02
2019-03-27T04:01:13.596Z,89.15
2019-03-27T04:03:44.914Z,95.10
2019-03-27T04:06:16.157Z,92.10
2019-03-27T04:08:47.172Z,78.87
2019-03-27T04:11:18.297Z,77.22
2019-03-27T04:13:49.621Z,83.17
2019-03-27T04:16:21.051Z,83.35
2019-03-27T04:18:52.202Z,94.75
2019-03-27T04:21:26.780Z,97.78
2019-03-27T04:23:56.170Z,103.15
2019-03-27T04:26:33.244Z,101.22
2019-03-27T04:29:01.783Z,92.85
2019-03-27T04:31:33.003Z,89.15
2019-03-27T04:34:04.085Z,100.30
2019-03-27T04:36:35.431Z,102.27
2019-03-27T04:39:06.494Z,97.88
2019-03-27T04:41:37.640Z,90.60
2019-03-27T04:44:08.668Z,89.67
2019-03-27T04:46:39.783Z,89.72
2019-03-27T04:49:10.804Z,90.75
2019-03-27T04:51:41.787Z,91.22
2019-03-27T04:54:13.031Z,82.57
2019-03-27T04:56:53.328Z,93.72
2019-03-27T04:59:24.363Z,90.90
2019-03-27T05:01:55.664Z,92.67
2019-03-27T05:04:27.418Z,92.57
2019-03-27T05:06:58.581Z,89.00
2019-03-27T05:09:29.747Z,94.28
2019-03-27T05:12:01.919Z,104.25
2019-03-27T05:14:32.950Z,107.95
2019-03-27T05:17:05.210Z,104.65
2019-03-27T05:19:36.376Z,97.95
2019-03-27T05:22:07.413Z,92.05
2019-03-27T05:24:38.428Z,99.30
2019-03-27T05:27:09.418Z,99.70
2019-03-27T05:29:40.835Z,95.57
2019-03-27T05:32:12.066Z,87.05
2019-03-27T05:34:43.265Z,94.52
2019-03-27T05:37:14.466Z,92.90
2019-03-27T05:39:45.564Z,100.30
2019-03-27T05:42:18.203Z,102.05
2019-03-27T05:44:49.251Z,96.30
2019-03-27T05:47:20.484Z,97.90
2019-03-27T05:49:51.724Z,99.62
2019-03-27T05:52:22.979Z,95.40
2019-03-27T05:54:54.078Z,94.55
2019-03-27T05:57:25.151Z,91.22
2019-03-27T05:59:56.551Z,90.77
2019-03-27T06:02:27.615Z,98.82
2019-03-27T06:04:59.002Z,97.53
2019-03-27T06:07:30.134Z,87.72
2019-03-27T06:10:01.230Z,84.03
2019-03-27T06:12:32.449Z,91.25
2019-03-27T06:15:06.583Z,94.77
2019-03-27T06:17:39.361Z,80.42
2019-03-27T06:20:10.555Z,81.92
2019-03-27T06:22:41.659Z,94.97
2019-03-27T06:25:12.858Z,87.67
2019-03-27T06:27:44.015Z,88.00
2019-03-27T06:30:17.996Z,82.40
2019-03-27T06:32:49.091Z,63.05
2019-03-27T06:35:20.438Z,80.30
2019-03-27T06:37:51.624Z,87.15
2019-03-27T06:40:22.912Z,93.78
2019-03-27T06:42:54.041Z,81.42
2019-03-27T06:45:25.214Z,80.20
2019-03-27T06:47:56.555Z,34.43
2019-03-27T06:50:27.637Z,30.05
2019-03-27T06:52:58.656Z,32.67
2019-03-27T06:55:29.690Z,41.85
2019-03-27T06:58:01.113Z,53.87
2019-03-27T07:00:36.664Z,65.22
2019-03-27T07:03:08.150Z,67.60
2019-03-27T07:05:39.381Z,72.32
2019-03-27T07:08:10.460Z,63.48
2019-03-27T07:10:42.466Z,52.67
2019-03-27T07:13:13.616Z,47.05
2019-03-27T07:15:44.819Z,19.30
2019-03-27T07:18:16.150Z,12.33
2019-03-27T07:20:47.365Z,13.88
2019-03-27T07:23:18.483Z,7.20
2019-03-27T07:25:49.675Z,10.48
2019-03-27T07:28:21.009Z,8.58
2019-03-27T07:30:52.000Z,8.05
2019-03-27T07:33:23.071Z,10.63
2019-03-27T07:35:55.269Z,6.85
2019-03-27T07:38:27.966Z,6.65
2019-03-27T07:40:58.978Z,6.50
2019-03-27T07:43:29.993Z,6.17
2019-03-27T07:46:01.158Z,7.00
2019-03-27T07:48:32.475Z,7.15
2019-03-27T07:51:03.428Z,9.48
2019-03-27T07:53:34.502Z,12.23
2019-03-27T07:56:06.822Z,6.95
2019-03-27T07:58:37.974Z,7.20
2019-03-27T08:01:11.015Z,8.38
2019-03-27T08:03:42.119Z,7.03
2019-03-27T08:06:13.226Z,6.85
2019-03-27T08:08:44.201Z,6.33
2019-03-27T08:11:15.283Z,7.45
2019-03-27T08:13:46.217Z,10.18
2019-03-27T08:16:17.509Z,7.22
2019-03-27T08:18:48.460Z,6.37
2019-03-27T08:21:23.267Z,5.97
2019-03-27T08:23:54.342Z,7.70
2019-03-27T08:26:25.729Z,10.55
2019-03-27T08:28:57.325Z,9.95
2019-03-27T08:31:28.419Z,61.83
2019-03-27T08:33:59.540Z,13.90
2019-03-27T08:36:30.977Z,12.05
2019-03-27T08:39:03.415Z,11.15
2019-03-27T08:41:35.867Z,9.30
2019-03-27T08:44:09.921Z,6.53
2019-03-27T08:46:41.025Z,7.72
2019-03-27T08:49:21.778Z,7.55
2019-03-27T08:51:44.832Z,10.23
2019-03-27T08:54:16.163Z,7.47
2019-03-27T08:56:47.287Z,7.47
2019-03-27T08:59:18.435Z,10.13
2019-03-27T09:01:49.659Z,10.63
2019-03-27T09:04:20.730Z,8.30
2019-03-27T09:06:51.653Z,10.72
2019-03-27T09:09:23.075Z,7.55
2019-03-27T09:11:54.075Z,8.58
2019-03-27T09:14:25.251Z,8.48
2019-03-27T09:16:56.285Z,13.00
2019-03-27T09:19:35.548Z,10.38
2019-03-27T09:22:02.746Z,11.73
2019-03-27T09:24:33.804Z,8.80
2019-03-27T09:27:04.760Z,8.83
2019-03-27T09:29:35.775Z,10.63
2019-03-27T09:32:06.824Z,13.03
2019-03-27T09:34:37.970Z,11.70
2019-03-27T09:37:09.092Z,10.95
2019-03-27T09:39:40.200Z,11.40
2019-03-27T09:42:11.201Z,10.43
2019-03-27T09:44:42.253Z,11.05
2019-03-27T09:47:13.477Z,12.50
2019-03-27T09:49:49.823Z,8.33
2019-03-27T09:52:17.620Z,67.42
2019-03-27T09:54:48.950Z,13.62
2019-03-27T09:57:20.318Z,19.00
2019-03-27T09:59:54.098Z,9.18
2019-03-27T10:02:25.022Z,9.15
2019-03-27T10:04:56.208Z,9.70
2019-03-27T10:07:27.170Z,8.98
2019-03-27T10:09:58.489Z,7.25
2019-03-27T10:12:29.784Z,8.90
2019-03-27T10:15:00.785Z,7.40
2019-03-27T10:17:31.808Z,10.90
2019-03-27T10:20:04.065Z,12.00
2019-03-27T10:22:37.234Z,13.90
2019-03-27T10:25:08.487Z,11.50
2019-03-27T10:27:43.129Z,13.15
2019-03-27T10:30:15.481Z,9.08
2019-03-27T10:32:46.317Z,10.05
2019-03-27T10:35:17.402Z,10.45
2019-03-27T10:37:48.417Z,7.78
2019-03-27T10:40:19.493Z,10.68
2019-03-27T10:42:50.493Z,10.70
2019-03-27T10:45:21.765Z,11.80
2019-03-27T10:47:52.886Z,17.20
2019-03-27T10:50:24.052Z,14.15
2019-03-27T10:52:55.265Z,25.08
2019-03-27T10:55:29.326Z,10.75
2019-03-27T10:58:00.549Z,16.95
2019-03-27T11:00:32.456Z,14.28
2019-03-27T11:03:03.616Z,18.10
2019-03-27T11:05:38.352Z,10.15
2019-03-27T11:08:11.738Z,10.43
2019-03-27T11:10:44.976Z,12.45
2019-03-27T11:13:18.158Z,14.58
2019-03-27T11:15:49.611Z,15.75
2019-03-27T11:18:21.989Z,14.70
2019-03-27T11:20:53.295Z,18.77
2019-03-27T11:23:25.283Z,13.38
2019-03-27T11:25:56.359Z,13.45
2019-03-27T11:28:27.344Z,14.87
2019-03-27T11:30:58.354Z,20.08
2019-03-27T11:33:29.568Z,16.67
2019-03-27T11:36:00.625Z,14.85
2019-03-27T11:38:31.744Z,12.95
2019-03-27T11:41:04.716Z,14.98
2019-03-27T11:43:35.747Z,12.90
2019-03-27T11:46:06.882Z,14.40
2019-03-27T11:48:37.923Z,11.80
2019-03-27T11:51:09.105Z,14.25
2019-03-27T11:53:40.393Z,15.83
2019-03-27T11:56:11.591Z,12.30
2019-03-27T11:58:42.860Z,15.18
2019-03-27T12:01:13.942Z,14.43
2019-03-27T12:03:45.050Z,16.60
2019-03-27T12:06:17.840Z,14.95
2019-03-27T12:08:50.985Z,16.27
2019-03-27T12:11:22.315Z,15.53
2019-03-27T12:13:53.436Z,16.62
2019-03-27T12:16:24.665Z,15.48
2019-03-27T12:18:55.740Z,15.98
2019-03-27T12:21:26.736Z,18.67
2019-03-27T12:23:57.922Z,15.70
2019-03-27T12:26:29.145Z,21.73
2019-03-27T12:29:00.209Z,33.42
2019-03-27T12:31:31.363Z,32.28
2019-03-27T12:34:02.537Z,31.68
2019-03-27T12:36:33.747Z,52.83
2019-03-27T12:39:06.667Z,36.93
2019-03-27T12:41:38.731Z,41.28
2019-03-27T12:44:09.928Z,44.50
2019-03-27T12:46:42.342Z,46.88
2019-03-27T12:49:13.459Z,44.88
2019-03-27T12:51:44.634Z,41.40
2019-03-27T12:54:15.714Z,41.98
2019-03-27T12:56:46.823Z,40.63
2019-03-27T12:59:17.772Z,42.60
2019-03-27T13:01:52.500Z,42.17
2019-03-27T13:04:23.748Z,37.98
2019-03-27T13:06:55.060Z,38.25
2019-03-27T13:09:26.146Z,36.65
2019-03-27T13:11:58.220Z,33.45
2019-03-27T13:14:29.385Z,37.65
2019-03-27T13:17:00.515Z,45.12
2019-03-27T13:19:31.714Z,33.78
2019-03-27T13:22:02.810Z,29.45
2019-03-27T13:24:33.938Z,34.30
2019-03-27T13:27:05.604Z,26.77
2019-03-27T13:29:36.648Z,25.02
2019-03-27T13:32:07.786Z,25.92
2019-03-27T13:34:38.792Z,25.05
2019-03-27T13:37:09.921Z,26.48
2019-03-27T13:39:41.166Z,24.82
2019-03-27T13:42:13.198Z,23.20
2019-03-27T13:44:44.437Z,23.75
2019-03-27T13:47:15.547Z,26.27
2019-03-27T13:49:46.790Z,29.50
2019-03-27T13:52:17.929Z,30.10
2019-03-27T13:54:49.156Z,31.82
2019-03-27T13:57:20.245Z,27.55
2019-03-27T13:59:51.457Z,27.25
2019-03-27T14:02:22.460Z,27.22
2019-03-27T14:04:53.683Z,27.58
2019-03-27T14:07:27.582Z,26.12
2019-03-27T14:09:58.738Z,33.40
2019-03-27T14:12:30.113Z,38.02
2019-03-27T14:15:01.801Z,41.35
2019-03-27T14:17:33.556Z,53.73
2019-03-27T14:20:06.625Z,65.95
2019-03-27T14:22:38.738Z,68.92
2019-03-27T14:25:09.912Z,68.17
2019-03-27T14:27:41.288Z,59.75
2019-03-27T14:30:17.002Z,51.35
2019-03-27T14:32:50.380Z,47.70
2019-03-27T14:35:21.444Z,59.58
2019-03-27T14:37:52.433Z,56.95
2019-03-27T14:40:23.586Z,59.65
2019-03-27T14:42:56.773Z,82.35
2019-03-27T14:45:28.127Z,84.22
2019-03-27T14:48:01.090Z,108.40
2019-03-27T14:50:32.209Z,93.20
2019-03-27T14:53:04.256Z,103.90
2019-03-27T14:55:35.487Z,122.35
2019-03-27T14:58:06.810Z,120.72
2019-03-27T15:00:39.520Z,97.75
2019-03-27T15:03:10.647Z,114.28
2019-03-27T15:05:41.809Z,138.10
2019-03-27T15:08:13.061Z,140.73
2019-03-27T15:10:44.077Z,129.15
2019-03-27T15:13:25.547Z,141.07
2019-03-27T15:15:56.871Z,120.30
2019-03-27T15:18:28.072Z,126.82
2019-03-27T15:20:59.238Z,124.07
2019-03-27T15:23:30.465Z,116.88
2019-03-27T15:26:01.652Z,114.17
2019-03-27T15:28:32.856Z,107.83
2019-03-27T15:31:03.999Z,92.25
2019-03-27T15:33:35.081Z,94.37
2019-03-27T15:36:06.082Z,87.57
2019-03-27T15:38:37.283Z,87.80
2019-03-27T15:41:08.445Z,80.55
2019-03-27T15:43:39.598Z,76.53
2019-03-27T15:46:10.771Z,62.88
2019-03-27T15:48:41.822Z,55.70
2019-03-27T15:51:12.864Z,51.83
2019-03-27T15:53:47.319Z,44.13
2019-03-27T15:56:18.307Z,49.05
2019-03-27T15:58:49.300Z,38.88
2019-03-27T16:01:20.305Z,36.55
2019-03-27T16:03:51.467Z,31.90
2019-03-27T16:06:22.497Z,35.05
2019-03-27T16:08:53.627Z,30.95
2019-03-27T16:11:25.731Z,34.53
2019-03-27T16:13:56.957Z,39.20
2019-03-27T16:16:28.003Z,33.83
2019-03-27T16:18:59.189Z,33.45
2019-03-27T16:21:30.357Z,34.70
2019-03-27T16:24:06.542Z,34.65
2019-03-27T16:26:34.321Z,31.10
2019-03-27T16:29:05.442Z,27.35
2019-03-27T16:31:36.575Z,24.72
2019-03-27T16:34:07.657Z,28.30
2019-03-27T16:36:38.699Z,27.85
2019-03-27T16:39:09.933Z,26.68
2019-03-27T16:41:41.014Z,24.27
2019-03-27T16:44:12.054Z,28.52
2019-03-27T16:46:43.195Z,26.60
2019-03-27T16:49:14.409Z,25.20
2019-03-27T16:51:45.574Z,24.15
2019-03-27T16:54:16.769Z,21.55
2019-03-27T16:56:47.828Z,22.77
2019-03-27T16:59:18.857Z,28.70
2019-03-27T17:01:49.957Z,25.72
2019-03-27T17:04:21.422Z,28.40
2019-03-27T17:06:52.776Z,26.60
2019-03-27T17:09:23.784Z,39.83
2019-03-27T17:11:54.819Z,25.65
2019-03-27T17:14:25.897Z,22.50
2019-03-27T17:16:56.964Z,26.55
2019-03-27T17:19:28.213Z,31.35
2019-03-27T17:21:59.290Z,37.25
2019-03-27T17:24:30.534Z,42.90
2019-03-27T17:27:01.931Z,40.50
2019-03-27T17:29:33.202Z,41.30
2019-03-27T17:32:04.580Z,33.30
2019-03-27T17:34:35.765Z,36.58
2019-03-27T17:37:09.050Z,45.52
2019-03-27T17:39:40.434Z,58.25
2019-03-27T17:42:11.830Z,67.50
2019-03-27T17:44:42.953Z,58.00
2019-03-27T17:47:14.092Z,56.00
2019-03-27T17:49:45.594Z,70.30
2019-03-27T17:52:16.728Z,75.90
2019-03-27T17:54:47.807Z,73.30
2019-03-27T17:57:18.895Z,85.15
2019-03-27T17:59:50.156Z,92.12
2019-03-27T18:02:21.271Z,89.03
2019-03-27T18:04:52.459Z,89.90
2019-03-27T18:07:23.990Z,92.45
2019-03-27T18:09:55.038Z,79.90
2019-03-27T18:12:28.782Z,85.07
2019-03-27T18:15:00.151Z,82.40
2019-03-27T18:17:31.379Z,76.33
2019-03-27T18:20:02.533Z,73.25
2019-03-27T18:22:33.824Z,73.83
2019-03-27T18:25:06.316Z,66.10
2019-03-27T18:27:37.396Z,63.42
2019-03-27T18:30:08.523Z,90.55
2019-03-27T18:32:39.811Z,81.75
2019-03-27T18:35:11.195Z,103.05
2019-03-27T18:37:42.363Z,79.25
2019-03-27T18:40:13.459Z,90.62
2019-03-27T18:42:44.649Z,77.10
2019-03-27T18:45:15.768Z,65.67
2019-03-27T18:47:47.082Z,57.60
2019-03-27T18:50:18.290Z,49.20
2019-03-27T18:52:49.406Z,43.13
2019-03-27T18:55:26.472Z,34.15
2019-03-27T18:57:59.972Z,31.45
2019-03-27T19:00:26.778Z,27.17
2019-03-27T19:02:58.180Z,30.60
2019-03-27T19:05:30.265Z,26.48
2019-03-27T19:08:01.308Z,26.93
2019-03-27T19:10:32.467Z,23.00
2019-03-27T19:13:03.491Z,27.05
2019-03-27T19:15:35.736Z,21.73
2019-03-27T19:18:06.778Z,21.68
2019-03-27T19:20:37.863Z,23.73
2019-03-27T19:23:08.885Z,24.32
2019-03-27T19:25:43.032Z,26.00
2019-03-27T19:28:14.141Z,28.55
2019-03-27T19:30:45.452Z,32.65
2019-03-27T19:33:17.757Z,34.67
2019-03-27T19:35:49.042Z,36.00
2019-03-27T19:38:20.199Z,35.83
2019-03-27T19:40:52.392Z,36.48
2019-03-27T19:43:23.565Z,44.63
2019-03-27T19:45:57.384Z,43.68
2019-03-27T19:48:27.590Z,46.25
2019-03-27T19:50:58.712Z,47.48
2019-03-27T19:53:29.900Z,51.02
2019-03-27T19:56:01.171Z,53.65
2019-03-27T19:58:33.508Z,52.70
2019-03-27T20:01:05.619Z,56.83
2019-03-27T20:03:38.040Z,53.08
2019-03-27T20:06:09.348Z,53.68
2019-03-27T20:08:40.545Z,53.23
2019-03-27T20:11:11.876Z,57.43
2019-03-27T20:13:43.022Z,56.05
2019-03-27T20:16:14.227Z,53.23
2019-03-27T20:18:45.340Z,54.90
2019-03-27T20:21:16.384Z,58.33
2019-03-27T20:23:47.520Z,56.48
2019-03-27T20:26:18.703Z,58.38
2019-03-27T20:28:49.856Z,52.38
2019-03-27T20:31:21.152Z,50.20
2019-03-27T20:33:52.255Z,54.38
2019-03-27T20:36:27.895Z,53.15
2019-03-27T20:38:59.479Z,54.53
2019-03-27T20:41:30.535Z,50.92
2019-03-27T20:44:01.951Z,49.03
2019-03-27T20:46:33.188Z,46.35
2019-03-27T20:49:04.449Z,47.85
2019-03-27T20:51:36.164Z,48.95
2019-03-27T20:54:07.263Z,45.45
2019-03-27T20:56:39.496Z,49.93
2019-03-27T20:59:18.154Z,51.10
2019-03-27T21:01:47.895Z,44.67
2019-03-27T21:04:20.824Z,47.43
2019-03-27T21:06:52.251Z,46.50
2019-03-27T21:09:23.450Z,45.08
2019-03-27T21:11:56.142Z,44.55
2019-03-27T21:14:27.607Z,43.13
2019-03-27T21:16:58.724Z,45.75
2019-03-27T21:19:29.753Z,46.90
2019-03-27T21:22:00.996Z,37.58
2019-03-27T21:24:32.092Z,40.35
2019-03-27T21:27:03.130Z,39.15
2019-03-27T21:29:34.301Z,40.90
2019-03-27T21:32:05.405Z,37.60
2019-03-27T21:34:36.468Z,33.28
2019-03-27T21:37:08.467Z,33.65
2019-03-27T21:39:39.489Z,31.37
2019-03-27T21:42:11.686Z,30.35
2019-03-27T21:44:45.092Z,31.75
2019-03-27T21:47:16.317Z,28.70
2019-03-27T21:49:47.360Z,34.38
2019-03-27T21:52:18.561Z,32.98
2019-03-27T21:54:49.929Z,34.75
2019-03-27T21:57:21.041Z,34.95
2019-03-27T21:59:53.378Z,34.50
2019-03-27T22:02:25.856Z,36.33
2019-03-27T22:04:57.946Z,35.15
2019-03-27T22:07:29.048Z,38.02
2019-03-27T22:10:00.398Z,36.50
2019-03-27T22:12:31.645Z,35.90
2019-03-27T22:15:02.688Z,38.78
2019-03-27T22:17:33.930Z,32.48
2019-03-27T22:20:06.877Z,36.28
2019-03-27T22:22:38.218Z,35.13
2019-03-27T22:25:10.398Z,43.20
2019-03-27T22:27:41.436Z,37.38
2019-03-27T22:30:12.821Z,38.38
2019-03-27T22:32:43.980Z,37.78
2019-03-27T22:35:15.074Z,40.65
2019-03-27T22:37:46.258Z,44.05
2019-03-27T22:40:17.434Z,43.15
2019-03-27T22:42:48.725Z,39.55
2019-03-27T22:45:20.916Z,43.68
2019-03-27T22:47:52.000Z,48.05
2019-03-27T22:50:23.235Z,46.65
2019-03-27T22:52:54.382Z,51.77
2019-03-27T22:55:25.471Z,48.98
2019-03-27T22:57:56.573Z,47.95
2019-03-27T23:00:45.307Z,62.83
2019-03-27T23:03:18.606Z,56.77
2019-03-27T23:05:49.926Z,57.00
2019-03-27T23:08:22.066Z,52.62
2019-03-27T23:10:53.406Z,55.12
2019-03-27T23:13:24.512Z,59.35
2019-03-27T23:15:55.597Z,53.85
2019-03-27T23:18:30.507Z,58.20
2019-03-27T23:21:01.557Z,49.50
2019-03-27T23:23:32.606Z,49.18
2019-03-27T23:26:04.024Z,51.68
2019-03-27T23:28:35.138Z,52.27
2019-03-27T23:31:06.134Z,50.30
2019-03-27T23:33:37.272Z,46.55
2019-03-27T23:36:08.380Z,43.10
2019-03-27T23:38:39.697Z,39.78
2019-03-27T23:41:10.893Z,48.30
2019-03-27T23:43:43.087Z,45.43
2019-03-27T23:46:14.301Z,46.05
2019-03-27T23:48:49.906Z,44.30
2019-03-27T23:51:20.890Z,44.30
2019-03-27T23:53:51.932Z,45.70
2019-03-27T23:56:23.167Z,39.15
2019-03-27T23:59:00.286Z,39.78
